Time;durP1;ratioP1;P1;durP2;ratioP2;P2;SDS_P1;SDS_P2;PMS_P1;PMS_P2;Temp;Humidity;BMP_temperature;BMP_pressure;BME280_temperature;BME280_humidity;BME280_pressure;Samples;Min_cycle;Max_cycle;Signal;HPM_P1;HPM_P2
2022/06/12 00:00:46;;;;;;;3.07;2.57;;;21.20;48.50;;;;;;4979521;28;20532;-59
2022/06/12 00:03:13;;;;;;;2.40;2.20;;;21.20;48.50;;;;;;4982228;28;20529;-60
2022/06/12 00:05:42;;;;;;;3.77;3.03;;;21.20;49.30;;;;;;4982613;28;20951;-60
2022/06/12 00:08:08;;;;;;;2.40;2.30;;;21.20;48.50;;;;;;4978470;28;20454;-61
2022/06/12 00:10:36;;;;;;;3.53;3.23;;;21.20;48.50;;;;;;4982224;28;20485;-60
2022/06/12 00:13:03;;;;;;;3.83;2.97;;;21.20;48.40;;;;;;4982644;28;20463;-60
2022/06/12 00:15:29;;;;;;;3.00;2.80;;;21.20;48.40;;;;;;4981105;28;20458;-60
2022/06/12 00:17:56;;;;;;;4.90;2.90;;;21.20;48.50;;;;;;4981365;28;20464;-60
2022/06/12 00:20:23;;;;;;;2.90;2.70;;;21.20;48.40;;;;;;4978995;28;20453;-60
2022/06/12 00:22:51;;;;;;;3.27;2.97;;;21.20;48.40;;;;;;4983239;28;20447;-60
2022/06/12 00:25:18;;;;;;;3.63;3.43;;;21.20;48.40;;;;;;4981964;28;20498;-60
2022/06/12 00:27:44;;;;;;;3.73;3.37;;;21.20;48.40;;;;;;4985081;28;20847;-60
2022/06/12 00:30:13;;;;;;;3.67;3.30;;;21.20;48.30;;;;;;4980626;28;20459;-60
2022/06/12 00:32:40;;;;;;;4.00;3.50;;;21.20;48.30;;;;;;4981424;28;20959;-60
2022/06/12 00:35:07;;;;;;;4.07;3.77;;;21.20;48.40;;;;;;4986474;28;20462;-60
2022/06/12 00:37:35;;;;;;;3.83;3.30;;;21.20;48.30;;;;;;4979485;28;20472;-60
2022/06/12 00:40:01;;;;;;;4.23;3.00;;;21.20;48.30;;;;;;4984138;28;20439;-60
2022/06/12 00:42:31;;;;;;;3.30;3.10;;;21.20;48.30;;;;;;4985666;28;20857;-60
2022/06/12 00:45:00;;;;;;;3.93;3.47;;;21.20;48.20;;;;;;4979785;28;20264;-60
2022/06/12 00:47:26;;;;;;;5.00;3.07;;;21.20;49.10;;;;;;4983576;28;20534;-59
2022/06/12 00:49:57;;;;;;;3.10;2.90;;;21.20;48.20;;;;;;4985576;28;20574;-60
2022/06/12 00:52:34;;;;;;;3.57;3.33;;;21.20;48.30;;;;;;4983224;28;20428;-60
2022/06/12 00:55:17;;;;;;;3.10;2.90;;;21.20;48.20;;;;;;4982575;28;20458;-59
2022/06/12 00:57:44;;;;;;;4.07;3.73;;;21.20;48.10;;;;;;4982906;28;20486;-59
2022/06/12 01:00:14;;;;;;;3.57;3.27;;;21.20;48.10;;;;;;4980902;28;20482;-60
2022/06/12 01:02:41;;;;;;;2.80;2.60;;;21.20;48.10;;;;;;4981821;28;20518;-60
2022/06/12 01:07:59;;;;;;;4.37;3.60;;;21.20;48.10;;;;;;4978719;28;20440;-60
2022/06/12 01:10:28;;;;;;;2.80;2.60;;;21.20;48.10;;;;;;4995968;28;20508;-59
2022/06/12 01:13:07;;;;;;;3.90;3.43;;;21.20;48.00;;;;;;4980005;28;20515;-60
2022/06/12 01:15:40;;;;;;;3.33;3.13;;;21.20;48.70;;;;;;4981784;28;20468;-60
2022/06/12 01:18:10;;;;;;;3.43;3.23;;;21.20;47.90;;;;;;4998234;28;20422;-60
2022/06/12 01:21:00;;;;;;;3.83;3.53;;;21.20;47.90;;;;;;4977824;28;20449;-60
2022/06/12 01:23:25;;;;;;;3.57;3.27;;;21.20;47.90;;;;;;4953897;28;20454;-61
2022/06/12 01:26:24;;;;;;;3.67;3.37;;;21.20;47.90;;;;;;4977308;28;20471;-60
2022/06/12 01:29:08;;;;;;;3.57;3.30;;;21.20;47.80;;;;;;4994803;28;20225;-60
2022/06/12 01:31:52;;;;;;;3.70;3.40;;;21.20;47.80;;;;;;4979186;28;20452;-60
2022/06/12 01:34:48;;;;;;;3.30;3.00;;;21.20;47.70;;;;;;4993499;28;20469;-60
2022/06/12 01:37:27;;;;;;;4.73;2.97;;;21.20;47.80;;;;;;4980909;28;20482;-60
2022/06/12 01:40:12;;;;;;;4.20;2.90;;;21.20;47.80;;;;;;4977195;28;20483;-60
2022/06/12 01:42:57;;;;;;;5.60;3.40;;;21.20;47.70;;;;;;4979021;28;20926;-60
2022/06/12 01:45:31;;;;;;;3.53;3.23;;;21.20;47.80;;;;;;4994648;28;20437;-60
2022/06/12 01:48:22;;;;;;;4.47;2.70;;;21.20;47.60;;;;;;4979158;28;20527;-60
2022/06/12 01:50:48;;;;;;;4.20;3.07;;;21.20;47.60;;;;;;4979342;28;21014;-60
2022/06/12 01:53:28;;;;;;;3.27;2.97;;;21.20;47.60;;;;;;4982010;28;20459;-59
2022/06/12 01:56:11;;;;;;;5.97;3.17;;;21.20;47.50;;;;;;4980338;28;20666;-60
2022/06/12 01:58:55;;;;;;;3.20;2.97;;;21.20;47.50;;;;;;4995841;28;20433;-60
2022/06/12 02:01:54;;;;;;;5.60;2.97;;;21.20;47.40;;;;;;4980711;28;20453;-60
2022/06/12 02:04:53;;;;;;;3.17;2.73;;;21.20;47.40;;;;;;4980382;28;20421;-61
2022/06/12 02:07:22;;;;;;;3.20;2.90;;;21.20;47.40;;;;;;4982582;28;20429;-60
2022/06/12 02:09:50;;;;;;;3.27;3.07;;;21.20;47.40;;;;;;4981629;28;20441;-60
2022/06/12 02:15:13;;;;;;;3.40;3.10;;;21.20;47.30;;;;;;4985508;28;21022;-60
2022/06/12 02:17:55;;;;;;;4.00;2.67;;;21.20;47.20;;;;;;4997361;28;20436;-60
2022/06/12 02:20:26;;;;;;;3.93;3.30;;;21.20;47.20;;;;;;4995990;28;20466;-60
2022/06/12 02:22:54;;;;;;;3.20;3.00;;;21.20;47.20;;;;;;4986940;28;20994;-60
2022/06/12 02:25:26;;;;;;;3.50;2.93;;;21.20;47.20;;;;;;4983935;28;20463;-60
2022/06/12 02:28:15;;;;;;;3.27;3.07;;;21.20;47.10;;;;;;4977772;28;20450;-60
2022/06/12 02:30:48;;;;;;;4.03;3.43;;;21.20;47.10;;;;;;4986678;28;20466;-60
2022/06/12 02:33:25;;;;;;;3.30;3.07;;;21.20;47.00;;;;;;4981075;28;20437;-60
2022/06/12 02:36:06;;;;;;;3.17;2.90;;;21.20;46.90;;;;;;4999341;28;20456;-60
2022/06/12 02:38:45;;;;;;;3.40;3.10;;;21.20;46.90;;;;;;4983089;28;20466;-60
2022/06/12 02:41:46;;;;;;;3.10;2.90;;;21.20;46.90;;;;;;4998240;28;20465;-59
2022/06/12 02:44:34;;;;;;;3.07;2.87;;;21.20;46.90;;;;;;4961066;28;20444;-59
2022/06/12 02:47:05;;;;;;;3.10;2.90;;;21.20;46.90;;;;;;4947522;28;20903;-59
2022/06/12 02:49:33;;;;;;;3.50;2.80;;;21.20;46.80;;;;;;4997934;28;20826;-59
2022/06/12 02:52:16;;;;;;;2.93;2.60;;;21.20;46.70;;;;;;4983310;28;20469;-60
2022/06/12 02:55:18;;;;;;;4.97;3.57;;;21.20;46.70;;;;;;4980479;28;20430;-60
2022/06/12 02:57:53;;;;;;;3.13;2.83;;;21.20;46.70;;;;;;4982480;28;20425;-60
2022/06/12 03:00:34;;;;;;;3.23;3.03;;;21.20;46.70;;;;;;4997431;28;20446;-60
2022/06/12 03:03:26;;;;;;;3.77;3.30;;;21.20;46.60;;;;;;4983413;28;20532;-59
2022/06/12 03:05:57;;;;;;;3.47;3.17;;;21.20;46.60;;;;;;4983683;28;20481;-60
2022/06/12 03:08:34;;;;;;;4.13;2.73;;;21.20;46.60;;;;;;4998419;28;20446;-59
2022/06/12 03:11:20;;;;;;;3.00;2.80;;;21.20;46.60;;;;;;4982118;28;20501;-59
2022/06/12 03:13:46;;;;;;;2.90;2.70;;;21.20;46.50;;;;;;4983363;28;20540;-59
2022/06/12 03:16:17;;;;;;;3.00;2.80;;;21.20;46.40;;;;;;4981798;28;20455;-61
2022/06/12 03:18:56;;;;;;;3.30;3.10;;;21.20;46.40;;;;;;4992711;28;20489;-60
2022/06/12 03:21:57;;;;;;;3.13;2.93;;;21.20;46.40;;;;;;4984055;28;20526;-60
2022/06/12 03:24:52;;;;;;;3.53;3.27;;;21.20;46.30;;;;;;4995179;28;20983;-60
2022/06/12 03:27:45;;;;;;;3.13;2.93;;;21.20;46.30;;;;;;4984273;28;20432;-60
2022/06/12 03:30:32;;;;;;;3.20;3.00;;;21.20;46.20;;;;;;4986519;28;20451;-61
2022/06/12 03:33:16;;;;;;;3.10;2.90;;;21.20;46.30;;;;;;4983123;28;20460;-60
2022/06/12 03:35:46;;;;;;;2.90;2.77;;;21.20;46.20;;;;;;4988178;28;20787;-60
2022/06/12 03:38:31;;;;;;;3.37;3.00;;;21.20;46.10;;;;;;4981824;28;20473;-60
2022/06/12 03:41:00;;;;;;;5.80;3.33;;;21.10;46.00;;;;;;4997618;28;20450;-60
2022/06/12 03:43:34;;;;;;;2.63;2.43;;;21.10;46.00;;;;;;4981117;28;20463;-60
2022/06/12 03:46:21;;;;;;;3.73;3.10;;;21.10;46.00;;;;;;4981040;28;20465;-60
2022/06/12 03:49:13;;;;;;;3.00;2.70;;;21.10;45.90;;;;;;4984113;28;20967;-60
2022/06/12 03:51:55;;;;;;;3.30;3.00;;;21.20;46.00;;;;;;4981240;28;20452;-60
2022/06/12 03:54:32;;;;;;;2.93;2.73;;;21.10;45.80;;;;;;4985972;28;21053;-60
2022/06/12 04:00:11;;;;;;;2.57;2.37;;;21.10;45.80;;;;;;4984136;28;20461;-60
2022/06/12 04:02:40;;;;;;;2.70;2.50;;;21.10;45.70;;;;;;4983127;28;20467;-60
2022/06/12 04:05:09;;;;;;;2.63;2.43;;;21.10;46.50;;;;;;4980422;28;20512;-62
2022/06/12 04:07:40;;;;;;;4.13;2.90;;;21.10;45.70;;;;;;4981146;28;20462;-60
2022/06/12 04:10:08;;;;;;;2.80;2.60;;;21.10;45.70;;;;;;4981781;28;20915;-60
2022/06/12 04:12:34;;;;;;;2.60;2.40;;;21.20;45.70;;;;;;4983258;28;20511;-60
2022/06/12 04:15:12;;;;;;;2.77;2.57;;;21.10;45.70;;;;;;4981287;28;21009;-58
2022/06/12 04:17:39;;;;;;;2.23;2.13;;;21.10;45.70;;;;;;4980313;28;20995;-60
2022/06/12 04:20:05;;;;;;;2.10;2.00;;;21.10;45.70;;;;;;4982376;28;20454;-60
2022/06/12 04:22:43;;;;;;;2.60;2.40;;;21.20;45.80;;;;;;4981844;28;20450;-60
2022/06/12 04:25:43;;;;;;;2.67;1.87;;;21.10;45.90;;;;;;4980691;28;20490;-59
2022/06/12 04:28:38;;;;;;;2.30;2.20;;;21.10;46.00;;;;;;4985131;28;20474;-59
2022/06/12 04:31:08;;;;;;;2.20;2.10;;;21.10;46.10;;;;;;4980389;28;20465;-61
2022/06/12 04:33:48;;;;;;;2.07;1.97;;;21.10;46.20;;;;;;4982122;28;20452;-60
2022/06/12 04:36:14;;;;;;;2.20;2.00;;;21.10;46.30;;;;;;4982185;28;20460;-59
2022/06/12 04:38:40;;;;;;;2.33;2.20;;;21.10;46.40;;;;;;4980105;28;20447;-59
2022/06/12 04:41:06;;;;;;;2.27;2.17;;;21.10;46.50;;;;;;4983275;28;20530;-60
2022/06/12 04:43:33;;;;;;;2.20;2.10;;;21.10;46.50;;;;;;4982454;28;20233;-60
2022/06/12 04:45:59;;;;;;;2.33;1.80;;;21.10;46.60;;;;;;4977873;28;20232;-60
2022/06/12 04:48:27;;;;;;;2.17;2.07;;;21.10;46.70;;;;;;4986021;28;20439;-60
2022/06/12 04:50:53;;;;;;;1.90;1.80;;;21.10;46.70;;;;;;4999110;28;20479;-59
2022/06/12 04:53:19;;;;;;;1.80;1.70;;;21.10;46.80;;;;;;4984316;28;20482;-59
2022/06/12 04:55:44;;;;;;;2.00;1.90;;;21.10;46.80;;;;;;4985470;28;20678;-60
2022/06/12 04:58:10;;;;;;;2.43;2.23;;;21.20;46.80;;;;;;4981260;28;20220;-60
2022/06/12 05:00:37;;;;;;;5.30;2.00;;;21.20;47.00;;;;;;4986179;28;20224;-60
2022/06/12 05:03:03;;;;;;;2.10;2.00;;;21.20;47.00;;;;;;4979785;28;20232;-60
2022/06/12 05:05:29;;;;;;;1.90;1.80;;;21.20;47.00;;;;;;4986831;28;20455;-60
2022/06/12 05:07:55;;;;;;;2.10;2.00;;;21.20;47.10;;;;;;4979689;28;20459;-60
2022/06/12 05:10:21;;;;;;;2.00;1.90;;;21.20;47.10;;;;;;4980641;28;20425;-60
2022/06/12 05:12:47;;;;;;;2.63;2.43;;;21.20;47.20;;;;;;4979989;28;20969;-61
2022/06/12 05:15:13;;;;;;;2.03;1.93;;;21.20;47.20;;;;;;4982420;28;20220;-61
2022/06/12 05:17:40;;;;;;;2.00;1.90;;;21.20;47.30;;;;;;4982057;28;20718;-60
2022/06/12 05:20:08;;;;;;;2.00;1.90;;;21.20;47.30;;;;;;4983339;28;20451;-59
2022/06/12 05:22:33;;;;;;;1.97;1.87;;;21.20;47.30;;;;;;4980914;28;21168;-59
2022/06/12 05:24:59;;;;;;;2.07;1.97;;;21.20;47.40;;;;;;4980355;28;20467;-60
2022/06/12 05:27:24;;;;;;;1.90;1.80;;;21.20;47.40;;;;;;4981333;28;20225;-60
2022/06/12 05:29:51;;;;;;;2.00;1.90;;;21.20;47.40;;;;;;4984166;28;20708;-60
2022/06/12 05:32:19;;;;;;;2.20;2.10;;;21.20;47.40;;;;;;4978190;28;20236;-60
2022/06/12 05:34:45;;;;;;;2.10;1.90;;;21.20;47.50;;;;;;4980159;28;20446;-59
2022/06/12 05:37:11;;;;;;;1.97;1.87;;;21.20;47.60;;;;;;4980326;28;20508;-59
2022/06/12 05:39:38;;;;;;;1.97;1.87;;;21.20;47.50;;;;;;4981653;28;20990;-59
2022/06/12 05:42:04;;;;;;;2.00;1.90;;;21.20;47.50;;;;;;4980261;28;20220;-61
2022/06/12 05:44:30;;;;;;;2.00;1.90;;;21.20;47.70;;;;;;4979366;28;20545;-60
2022/06/12 05:46:57;;;;;;;2.07;1.97;;;21.20;47.60;;;;;;4977598;28;20530;-60
2022/06/12 05:49:24;;;;;;;1.93;1.83;;;21.20;48.50;;;;;;4983692;28;20245;-59
2022/06/12 05:51:49;;;;;;;1.80;1.70;;;21.20;47.70;;;;;;4979830;28;20537;-59
2022/06/12 05:54:15;;;;;;;1.90;1.80;;;21.20;47.80;;;;;;4981693;28;20550;-59
2022/06/12 05:56:41;;;;;;;1.80;1.70;;;21.20;47.80;;;;;;4981369;28;20217;-60
2022/06/12 05:59:07;;;;;;;2.00;1.90;;;21.20;47.80;;;;;;4978811;28;20233;-60
2022/06/12 06:01:33;;;;;;;1.87;1.77;;;21.20;48.00;;;;;;4981569;28;20279;-59
2022/06/12 06:03:59;;;;;;;1.67;1.57;;;21.20;47.80;;;;;;4984897;28;20462;-60
2022/06/12 06:06:30;;;;;;;2.17;2.03;;;21.20;47.70;;;;;;4983162;28;20248;-60
2022/06/12 06:08:57;;;;;;;1.87;1.77;;;21.20;47.70;;;;;;4980787;28;20237;-60
2022/06/12 06:11:23;;;;;;;2.37;1.97;;;21.20;47.90;;;;;;4982007;28;20474;-60
2022/06/12 06:13:48;;;;;;;4.37;1.90;;;21.20;47.50;;;;;;4980516;28;20957;-59
2022/06/12 06:16:14;;;;;;;2.20;2.00;;;21.20;47.50;;;;;;4985752;28;20248;-60
2022/06/12 06:18:40;;;;;;;2.10;2.00;;;21.20;47.60;;;;;;4979224;28;20657;-59
2022/06/12 06:21:11;;;;;;;2.07;1.70;;;21.20;47.60;;;;;;4981201;28;20282;-61
2022/06/12 06:23:40;;;;;;;1.90;1.80;;;21.20;47.70;;;;;;4979154;28;20450;-58
2022/06/12 06:26:06;;;;;;;1.90;1.80;;;21.20;47.80;;;;;;4979915;28;20475;-59
2022/06/12 06:28:32;;;;;;;2.67;1.97;;;21.20;47.80;;;;;;4984935;28;20455;-58
2022/06/12 06:30:58;;;;;;;1.70;1.60;;;21.20;47.80;;;;;;4983942;28;20445;-59
2022/06/12 06:33:24;;;;;;;1.90;1.80;;;21.20;47.90;;;;;;4978189;28;20463;-60
2022/06/12 06:35:51;;;;;;;1.80;1.70;;;21.20;48.10;;;;;;4982906;28;20321;-59
2022/06/12 06:38:17;;;;;;;2.47;2.27;;;21.20;48.00;;;;;;4980028;28;20554;-59
2022/06/12 06:40:43;;;;;;;1.70;1.60;;;21.20;48.10;;;;;;4983576;28;20311;-59
2022/06/12 06:43:09;;;;;;;2.10;2.00;;;21.20;48.20;;;;;;4980694;28;20505;-58
2022/06/12 06:48:22;;;;;;;1.90;1.80;;;21.20;48.30;;;;;;4983588;28;20946;-62
2022/06/12 06:50:48;;;;;;;2.20;2.10;;;21.20;48.40;;;;;;4980094;28;20443;-59
2022/06/12 06:53:14;;;;;;;2.37;2.17;;;21.20;48.40;;;;;;4979310;28;20465;-59
2022/06/12 06:55:41;;;;;;;2.80;1.87;;;21.30;48.30;;;;;;4978712;28;21092;-59
2022/06/12 06:58:17;;;;;;;2.73;2.33;;;21.20;48.00;;;;;;4981889;28;20557;-58
2022/06/12 07:00:45;;;;;;;2.07;1.97;;;21.20;47.60;;;;;;4980672;28;20467;-58
2022/06/12 07:03:11;;;;;;;1.87;1.77;;;21.20;47.70;;;;;;4979839;28;20452;-58
2022/06/12 07:05:37;;;;;;;1.70;1.53;;;21.20;47.60;;;;;;4979485;28;20486;-58
2022/06/12 07:08:03;;;;;;;2.03;1.93;;;21.20;47.70;;;;;;4982671;28;20469;-59
2022/06/12 07:10:32;;;;;;;1.87;1.77;;;21.20;47.80;;;;;;4985636;28;20451;-58
2022/06/12 07:12:59;;;;;;;1.63;1.53;;;21.20;47.80;;;;;;4981900;28;20927;-58
2022/06/12 07:15:26;;;;;;;1.70;1.60;;;21.20;47.90;;;;;;4986985;28;20462;-58
2022/06/12 07:17:54;;;;;;;1.57;1.47;;;21.20;48.70;;;;;;4984957;28;20445;-58
2022/06/12 07:20:21;;;;;;;1.50;1.40;;;21.20;48.10;;;;;;4986557;28;20458;-58
2022/06/12 07:22:47;;;;;;;1.90;1.80;;;21.20;48.10;;;;;;4983775;28;20455;-58
2022/06/12 07:25:14;;;;;;;1.47;1.37;;;21.20;48.10;;;;;;4982501;28;20872;-58
2022/06/12 07:27:40;;;;;;;2.20;2.00;;;21.20;48.20;;;;;;4982485;28;20253;-57
2022/06/12 07:30:08;;;;;;;2.00;1.30;;;21.20;48.30;;;;;;4989346;28;20517;-58
2022/06/12 07:32:34;;;;;;;1.83;1.73;;;21.20;48.80;;;;;;4980434;28;20477;-58
2022/06/12 07:35:01;;;;;;;1.77;1.67;;;21.20;48.10;;;;;;4987068;28;20533;-58
2022/06/12 07:37:27;;;;;;;1.77;1.67;;;21.20;48.10;;;;;;4985545;28;20442;-57
2022/06/12 07:39:53;;;;;;;1.77;1.67;;;21.30;48.10;;;;;;4988845;28;20469;-58
2022/06/12 07:42:18;;;;;;;1.60;1.50;;;21.20;48.20;;;;;;4983159;28;20255;-61
2022/06/12 07:44:45;;;;;;;1.43;1.33;;;21.20;47.80;;;;;;4986078;28;20255;-58
2022/06/12 07:47:10;;;;;;;2.30;1.40;;;21.20;47.40;;;;;;4989850;28;20283;-57
2022/06/12 07:49:36;;;;;;;2.00;1.90;;;21.20;47.20;;;;;;4988206;28;20462;-58
2022/06/12 07:52:07;;;;;;;1.90;1.80;;;21.20;47.10;;;;;;4986658;28;20238;-58
2022/06/12 07:54:34;;;;;;;2.70;1.80;;;21.20;47.20;;;;;;4980473;28;20455;-59
2022/06/12 07:57:00;;;;;;;2.13;1.60;;;21.20;47.00;;;;;;4984654;28;20524;-58
2022/06/12 07:59:26;;;;;;;2.47;1.60;;;21.20;46.80;;;;;;4987374;28;20834;-58
2022/06/12 08:01:53;;;;;;;3.20;1.73;;;21.20;46.60;;;;;;4986974;28;20867;-59
2022/06/12 08:04:19;;;;;;;1.30;1.20;;;21.20;46.40;;;;;;4986047;28;20474;-60
2022/06/12 08:06:46;;;;;;;1.60;1.50;;;21.20;46.10;;;;;;5000916;28;20451;-58
2022/06/12 08:09:11;;;;;;;1.33;1.23;;;21.30;45.90;;;;;;4985223;28;20434;-59
2022/06/12 08:11:39;;;;;;;1.30;1.20;;;21.20;45.70;;;;;;4985622;28;21040;-58
2022/06/12 08:14:06;;;;;;;1.63;1.53;;;21.30;45.80;;;;;;4982876;28;20691;-58
2022/06/12 08:16:33;;;;;;;1.60;1.50;;;21.20;45.70;;;;;;4983844;28;20534;-58
2022/06/12 08:18:59;;;;;;;1.83;1.73;;;21.30;45.80;;;;;;4982231;28;20466;-58
2022/06/12 08:21:25;;;;;;;1.30;1.20;;;21.30;45.80;;;;;;4983734;28;20455;-58
2022/06/12 08:23:55;;;;;;;1.40;1.30;;;21.20;45.70;;;;;;4983240;28;20455;-60
2022/06/12 08:26:24;;;;;;;1.80;1.70;;;21.20;46.00;;;;;;4983579;28;20475;-60
2022/06/12 08:29:18;;;;;;;1.50;1.40;;;21.30;46.20;;;;;;4984987;28;21252;-59
2022/06/12 08:32:02;;;;;;;1.80;1.70;;;21.20;46.30;;;;;;4982022;28;20451;-59
2022/06/12 08:34:34;;;;;;;1.97;1.50;;;21.20;46.50;;;;;;4982779;28;20533;-58
2022/06/12 08:37:02;;;;;;;1.73;1.50;;;21.20;46.40;;;;;;4986831;28;20458;-58
2022/06/12 08:39:29;;;;;;;1.53;1.43;;;21.20;46.10;;;;;;4983899;28;20456;-59
2022/06/12 08:42:16;;;;;;;2.50;1.40;;;21.20;46.50;;;;;;4980902;28;20533;-58
2022/06/12 08:45:11;;;;;;;1.97;1.20;;;21.20;45.70;;;;;;4983666;28;20470;-58
2022/06/12 08:47:48;;;;;;;1.60;1.50;;;21.20;45.70;;;;;;4981927;28;20455;-58
2022/06/12 08:50:42;;;;;;;1.40;1.30;;;21.20;45.70;;;;;;4984070;28;20535;-58
2022/06/12 08:53:49;;;;;;;1.30;1.20;;;21.30;45.80;;;;;;4985675;28;20499;-58
2022/06/12 08:56:28;;;;;;;1.70;1.60;;;21.20;45.80;;;;;;4984020;28;20485;-58
2022/06/12 08:59:04;;;;;;;1.50;1.30;;;21.20;46.10;;;;;;4982671;28;20446;-58
2022/06/12 09:01:30;;;;;;;2.10;1.50;;;21.20;46.30;;;;;;4985153;28;20954;-58
2022/06/12 09:03:56;;;;;;;1.20;1.10;;;21.20;46.50;;;;;;4982393;28;20462;-58
2022/06/12 09:06:35;;;;;;;1.27;1.17;;;21.20;46.50;;;;;;4981893;28;20220;-58
2022/06/12 09:09:09;;;;;;;1.20;1.10;;;21.20;46.70;;;;;;4983558;28;20628;-58
2022/06/12 09:11:42;;;;;;;1.30;1.20;;;21.20;46.80;;;;;;4981225;28;20470;-58
2022/06/12 09:14:20;;;;;;;3.13;1.60;;;21.20;46.90;;;;;;4980713;28;20505;-58
2022/06/12 09:16:57;;;;;;;1.80;1.70;;;21.20;47.00;;;;;;4985352;28;20446;-58
2022/06/12 09:19:28;;;;;;;2.07;1.40;;;21.20;47.20;;;;;;4981696;28;20584;-58
2022/06/12 09:22:19;;;;;;;1.60;1.33;;;21.20;47.20;;;;;;4982671;28;20451;-58
2022/06/12 09:25:00;;;;;;;1.40;1.13;;;21.20;47.30;;;;;;4981079;28;20471;-58
2022/06/12 09:27:55;;;;;;;1.60;1.50;;;21.20;47.20;;;;;;4983411;28;20466;-59
2022/06/12 09:30:48;;;;;;;1.30;1.20;;;21.20;47.20;;;;;;4983569;28;20462;-59
2022/06/12 09:33:52;;;;;;;1.60;1.50;;;21.20;47.20;;;;;;4980684;28;20562;-58
2022/06/12 09:36:24;;;;;;;2.60;1.40;;;21.20;47.30;;;;;;4981590;28;20467;-59
2022/06/12 09:39:02;;;;;;;1.60;1.50;;;21.20;47.40;;;;;;4983021;28;20507;-59
2022/06/12 09:41:44;;;;;;;1.73;1.40;;;21.20;47.50;;;;;;4978684;28;20462;-58
2022/06/12 09:44:15;;;;;;;1.33;1.23;;;21.10;47.50;;;;;;4979472;28;20433;-58
2022/06/12 09:47:00;;;;;;;1.40;1.30;;;21.10;47.60;;;;;;4994261;28;20459;-59
2022/06/12 09:49:47;;;;;;;1.33;1.23;;;21.10;47.60;;;;;;4980720;28;20467;-58
2022/06/12 09:52:34;;;;;;;1.57;1.47;;;21.20;47.70;;;;;;4979721;28;20811;-59
2022/06/12 09:55:02;;;;;;;3.53;1.30;;;21.10;47.70;;;;;;4983587;28;20462;-58
2022/06/12 09:57:45;;;;;;;1.50;1.40;;;21.10;47.80;;;;;;4982739;28;20501;-64
2022/06/12 10:00:18;;;;;;;1.50;1.40;;;21.10;47.70;;;;;;4981625;28;20441;-58
2022/06/12 10:02:53;;;;;;;1.57;1.30;;;21.10;47.80;;;;;;4981758;28;20512;-60
2022/06/12 10:05:41;;;;;;;1.30;1.20;;;21.10;47.90;;;;;;4979643;28;20531;-59
2022/06/12 10:08:17;;;;;;;1.40;1.30;;;21.10;47.90;;;;;;4984194;28;21030;-58
2022/06/12 10:11:09;;;;;;;1.40;1.30;;;21.10;47.90;;;;;;4981725;28;20451;-58
2022/06/12 10:13:40;;;;;;;1.57;1.47;;;21.20;48.00;;;;;;4977222;28;20467;-58
2022/06/12 10:16:15;;;;;;;1.83;1.30;;;21.10;48.00;;;;;;4978585;28;20594;-58
2022/06/12 10:19:06;;;;;;;1.90;1.30;;;21.10;48.00;;;;;;4981484;28;20529;-59
2022/06/12 10:21:36;;;;;;;1.73;1.63;;;21.10;48.00;;;;;;4982088;28;20454;-58
2022/06/12 10:24:03;;;;;;;1.60;1.50;;;21.10;48.10;;;;;;4982902;28;20446;-58
2022/06/12 10:26:31;;;;;;;1.50;1.40;;;21.10;48.10;;;;;;4981062;28;20882;-58
2022/06/12 10:29:11;;;;;;;1.53;1.43;;;21.10;48.10;;;;;;4986755;28;20470;-58
2022/06/12 10:31:58;;;;;;;1.40;1.30;;;21.10;48.10;;;;;;4996743;28;20458;-57
2022/06/12 10:34:28;;;;;;;1.70;1.60;;;21.10;48.10;;;;;;4981934;28;20528;-58
2022/06/12 10:37:13;;;;;;;2.13;1.70;;;21.10;48.20;;;;;;4980224;28;20455;-58
2022/06/12 10:39:40;;;;;;;1.40;1.30;;;21.10;48.20;;;;;;4982039;28;20474;-58
2022/06/12 10:42:27;;;;;;;2.33;1.60;;;21.10;48.20;;;;;;4986621;28;20459;-58
2022/06/12 10:44:56;;;;;;;3.83;1.80;;;21.10;48.20;;;;;;4984038;28;20458;-58
2022/06/12 10:47:28;;;;;;;1.23;1.13;;;21.10;48.20;;;;;;4981220;28;20813;-58
2022/06/12 10:50:06;;;;;;;1.60;1.50;;;21.10;48.20;;;;;;4987088;28;20535;-58
2022/06/12 10:52:32;;;;;;;2.27;1.80;;;21.20;48.30;;;;;;4983429;28;20478;-58
2022/06/12 10:54:58;;;;;;;2.13;1.90;;;21.20;48.40;;;;;;4998966;28;20951;-58
2022/06/12 10:57:51;;;;;;;1.90;1.80;;;21.20;48.40;;;;;;4984446;28;20476;-58
2022/06/12 11:00:26;;;;;;;3.20;2.10;;;21.20;48.40;;;;;;4981599;28;20501;-58
2022/06/12 11:03:01;;;;;;;4.67;1.80;;;21.20;48.40;;;;;;4981080;28;20465;-58
2022/06/12 11:05:40;;;;;;;1.90;1.70;;;21.20;48.40;;;;;;4984704;28;20958;-57
2022/06/12 11:08:28;;;;;;;2.97;2.07;;;21.20;48.40;;;;;;4981558;28;20454;-57
2022/06/12 11:11:22;;;;;;;2.20;1.80;;;21.20;48.40;;;;;;5000208;28;20793;-58
2022/06/12 11:14:05;;;;;;;2.07;1.63;;;21.20;48.50;;;;;;4983250;28;20505;-57
2022/06/12 11:17:05;;;;;;;2.30;1.83;;;21.20;48.50;;;;;;4985102;28;20457;-57
2022/06/12 11:19:38;;;;;;;2.20;1.80;;;21.20;48.60;;;;;;4981788;28;20517;-58
2022/06/12 11:22:10;;;;;;;2.03;1.83;;;21.20;48.60;;;;;;4982312;28;20466;-57
2022/06/12 11:24:48;;;;;;;2.80;2.60;;;21.10;48.60;;;;;;4980378;28;20433;-57
2022/06/12 11:27:28;;;;;;;2.67;1.93;;;21.20;48.60;;;;;;4982972;28;20467;-58
2022/06/12 11:30:03;;;;;;;2.27;2.17;;;21.20;48.60;;;;;;4985228;28;20458;-57
2022/06/12 11:33:08;;;;;;;2.70;2.27;;;21.10;48.60;;;;;;4983954;28;21196;-57
2022/06/12 11:36:00;;;;;;;2.37;1.90;;;21.10;48.60;;;;;;4983280;28;20443;-57
2022/06/12 11:38:44;;;;;;;4.53;2.00;;;21.10;48.60;;;;;;4982690;28;20441;-57
2022/06/12 11:41:36;;;;;;;1.93;1.83;;;21.10;48.70;;;;;;4986502;28;20616;-57
2022/06/12 11:44:33;;;;;;;1.70;1.60;;;21.10;48.60;;;;;;4984457;28;20456;-57
2022/06/12 11:47:09;;;;;;;2.47;2.27;;;21.10;48.70;;;;;;4984242;28;20868;-57
2022/06/12 11:50:06;;;;;;;2.13;1.97;;;21.10;48.70;;;;;;4984557;28;20454;-57
2022/06/12 11:52:45;;;;;;;1.80;1.70;;;21.10;48.70;;;;;;4965719;28;20494;-57
2022/06/12 11:55:22;;;;;;;2.07;1.83;;;21.10;48.80;;;;;;5001268;28;20822;-57
2022/06/12 11:58:23;;;;;;;1.60;1.50;;;21.10;48.80;;;;;;4987265;28;20467;-58
2022/06/12 12:01:10;;;;;;;1.90;1.70;;;21.10;48.70;;;;;;4980607;28;20466;-57
2022/06/12 12:04:00;;;;;;;1.73;1.63;;;21.10;48.70;;;;;;4984878;28;20542;-57
2022/06/12 12:06:36;;;;;;;2.40;1.60;;;21.10;48.80;;;;;;4995805;28;20505;-58
2022/06/12 12:09:35;;;;;;;2.20;2.00;;;21.10;48.80;;;;;;4987074;28;20436;-58
2022/06/12 12:12:11;;;;;;;1.80;1.70;;;21.10;48.80;;;;;;4979721;28;20451;-57
2022/06/12 12:14:41;;;;;;;2.80;2.10;;;21.10;48.80;;;;;;4979568;28;20469;-57
2022/06/12 12:17:09;;;;;;;2.00;1.90;;;21.10;48.80;;;;;;4981127;28;20454;-58
2022/06/12 12:19:46;;;;;;;1.60;1.50;;;21.10;48.90;;;;;;4982486;28;20473;-58
2022/06/12 12:22:18;;;;;;;1.77;1.67;;;21.10;48.80;;;;;;4980105;28;20425;-57
2022/06/12 12:24:53;;;;;;;2.20;2.10;;;21.10;48.90;;;;;;4982985;28;20638;-58
2022/06/12 12:27:30;;;;;;;1.90;1.80;;;21.10;48.90;;;;;;4982331;28;20454;-58
2022/06/12 12:29:58;;;;;;;1.90;1.80;;;21.10;48.80;;;;;;4983502;28;20484;-58
2022/06/12 12:32:28;;;;;;;1.90;1.80;;;21.10;48.90;;;;;;4981721;28;20800;-57
2022/06/12 12:34:56;;;;;;;1.80;1.70;;;21.10;48.90;;;;;;4980931;28;20512;-58
2022/06/12 12:43:03;;;;;;;2.50;1.90;;;21.10;48.90;;;;;;4981184;28;20872;-59
2022/06/12 12:45:36;;;;;;;1.90;1.80;;;21.10;48.90;;;;;;4981601;28;20465;-58
2022/06/12 12:48:15;;;;;;;2.40;2.20;;;21.10;48.90;;;;;;4987663;28;20956;-57
2022/06/12 12:50:50;;;;;;;1.87;1.77;;;21.10;48.90;;;;;;4982176;28;20450;-58
2022/06/12 12:53:29;;;;;;;2.10;2.00;;;21.10;48.90;;;;;;4978335;28;20979;-57
2022/06/12 12:56:14;;;;;;;2.00;1.90;;;21.10;48.90;;;;;;4983991;28;20508;-58
2022/06/12 12:59:05;;;;;;;2.10;1.90;;;21.10;48.90;;;;;;4982497;28;20775;-57
2022/06/12 13:01:45;;;;;;;2.17;1.97;;;21.10;48.90;;;;;;4977523;28;20450;-57
2022/06/12 13:04:30;;;;;;;2.10;2.00;;;21.10;48.90;;;;;;4984498;28;20483;-57
2022/06/12 13:07:22;;;;;;;2.67;2.50;;;21.10;49.00;;;;;;4981409;28;20454;-57
2022/06/12 13:10:09;;;;;;;3.30;2.20;;;21.10;49.00;;;;;;4984806;28;20585;-58
2022/06/12 13:12:48;;;;;;;2.20;2.10;;;21.10;49.00;;;;;;4980436;28;20482;-58
2022/06/12 13:15:35;;;;;;;2.57;1.80;;;21.10;49.00;;;;;;4976942;28;21156;-58
2022/06/12 13:18:08;;;;;;;2.27;2.17;;;21.10;49.00;;;;;;4999193;28;20555;-57
2022/06/12 13:20:50;;;;;;;2.07;1.97;;;21.10;49.00;;;;;;4978572;28;20455;-58
2022/06/12 13:23:38;;;;;;;2.10;2.00;;;21.10;49.00;;;;;;4986755;28;20466;-57
2022/06/12 13:26:08;;;;;;;2.00;1.90;;;21.10;49.00;;;;;;4960106;28;20509;-58
2022/06/12 13:28:35;;;;;;;4.20;2.30;;;21.10;49.00;;;;;;4984430;28;20477;-58
2022/06/12 13:31:03;;;;;;;2.30;2.20;;;21.10;49.00;;;;;;4981968;28;20445;-57
2022/06/12 13:33:34;;;;;;;2.40;2.30;;;21.10;49.00;;;;;;4980324;28;20466;-58
2022/06/12 13:36:14;;;;;;;2.40;2.30;;;21.10;49.00;;;;;;4981623;28;20468;-58
2022/06/12 13:38:45;;;;;;;2.73;2.53;;;21.10;49.00;;;;;;4983440;28;20901;-59
2022/06/12 13:41:23;;;;;;;2.57;2.37;;;21.10;49.00;;;;;;4982231;28;20466;-57
2022/06/12 13:43:49;;;;;;;2.50;2.30;;;21.10;49.00;;;;;;4996678;28;20822;-58